Aérodrome :
LOGIN :

S'inscrire | Disclaimer

   EN    FR    IT 

 










Légende :    VFR   VFR Marginal   IFR   IFR Intensif   IFR Très Intensif
Visi : 
Plafond : 
>= 8 km
>= 3000ft
5 à 8 km
1000 à 3000 ft
1500m à 5 km
500 à 1000 ft
800 à 1500m
200 à 500 ft
< 800m
< 200 ft
Symboles :   Orages  Brouillard  Fortes neiges  Fortes précipitations  Vent > 20 kt
SIGMETs :   Divers  Orages  Givrage  Turbulence  Onde Orograph.  Cendres Volcan.






- Altitude de l'aérodrome : 1234 ft
- Code IATA : LUX


ELLX - Luxembourg Findel

DERNIER METAR :
  • 240120Z AUTO 27014KT 9999 -SHSN FEW007/// SCT009/// BKN010/// 00/M01 Q0993 NOSIG

METARs EXPIRÉS :
  • 240050Z AUTO 28013KT 250V310 5000 -SN FEW006/// BKN009/// BKN012/// 00/M01 Q0993 NOSIG
  • 240020Z AUTO 27013KT 2800 -SN FEW007/// SCT009/// BKN011/// 00/M00 Q0993 NOSIG
  • 232350Z 27013KT 8000 -SN FEW009 BKN012 00/M01 Q0992 NOSIG
  • 232320Z 28015KT 9999 -SN FEW006 BKN009 00/M00 Q0992 NOSIG

TAF TAF ELLX
Valide du 24 à 00h jusqu'au 25 à 06h UTC


232300Z 2400/2506 27012KT 9999 SCT008 BKN015
TEMPO 2400/2404 7000 -SN BKN006
BECMG 2412/2414 22007KT SCT020
BECMG 2419/2421 17008KT BKN012
TEMPO 2421/2506 5000 -SN BR BKN004
ATIS : +352 4798 27300
Météo : +352 4798 27010 / 27050



MET'MAP, la Météo Aéronautique d'un coup d'oeil ! - Copyright ORBIFLY Décembre 2007 - Disclaimer

ORBIFLY MET'MAP TEAM :

Programmation & Développement : Alexandra Zaïnal
Sur une idée originale de : Baudouin d'Aumeries
Assistance à la programmation : Marc-Olivier Méhu
Soutien technique & logistique : Manuel Goepfert

Contact : metmap@orbifly.com




SOURCES & CREDITS :

   NOAA